sensor_id;sensor_type;location;lat;lon;timestamp;temperature;humidity
21807;DHT22;11065;50.786;7.840;2024-01-06T00:02:12;9.70;53.60
21807;DHT22;11065;50.786;7.840;2024-01-06T00:04:40;9.80;53.70
21807;DHT22;11065;50.786;7.840;2024-01-06T00:07:08;9.80;53.70
21807;DHT22;11065;50.786;7.840;2024-01-06T00:09:36;9.80;53.80
21807;DHT22;11065;50.786;7.840;2024-01-06T00:12:05;9.80;53.90
21807;DHT22;11065;50.786;7.840;2024-01-06T00:14:33;9.80;53.80
21807;DHT22;11065;50.786;7.840;2024-01-06T00:17:01;9.80;53.90
21807;DHT22;11065;50.786;7.840;2024-01-06T00:19:30;9.80;53.90
21807;DHT22;11065;50.786;7.840;2024-01-06T00:21:58;9.80;53.90
21807;DHT22;11065;50.786;7.840;2024-01-06T00:24:27;9.80;54.00
21807;DHT22;11065;50.786;7.840;2024-01-06T00:26:55;9.80;53.90
21807;DHT22;11065;50.786;7.840;2024-01-06T00:29:23;9.70;53.90
21807;DHT22;11065;50.786;7.840;2024-01-06T00:31:51;9.70;53.90
21807;DHT22;11065;50.786;7.840;2024-01-06T00:34:19;9.70;54.10
21807;DHT22;11065;50.786;7.840;2024-01-06T00:36:48;9.70;54.20
21807;DHT22;11065;50.786;7.840;2024-01-06T00:39:16;9.70;54.00
21807;DHT22;11065;50.786;7.840;2024-01-06T00:41:45;9.70;54.20
21807;DHT22;11065;50.786;7.840;2024-01-06T00:44:13;9.70;54.00
21807;DHT22;11065;50.786;7.840;2024-01-06T00:46:41;9.80;53.90
21807;DHT22;11065;50.786;7.840;2024-01-06T00:49:09;9.70;54.00
21807;DHT22;11065;50.786;7.840;2024-01-06T00:51:37;9.70;54.00
21807;DHT22;11065;50.786;7.840;2024-01-06T00:54:07;9.70;54.00
21807;DHT22;11065;50.786;7.840;2024-01-06T00:56:35;9.70;54.20
21807;DHT22;11065;50.786;7.840;2024-01-06T00:59:03;9.70;54.60
21807;DHT22;11065;50.786;7.840;2024-01-06T01:01:31;9.70;54.50
21807;DHT22;11065;50.786;7.840;2024-01-06T01:03:59;9.70;54.10
21807;DHT22;11065;50.786;7.840;2024-01-06T01:06:28;9.70;54.30
21807;DHT22;11065;50.786;7.840;2024-01-06T01:08:56;9.70;54.10
21807;DHT22;11065;50.786;7.840;2024-01-06T01:11:25;9.60;54.10
21807;DHT22;11065;50.786;7.840;2024-01-06T01:13:53;9.70;54.20
21807;DHT22;11065;50.786;7.840;2024-01-06T01:16:21;9.70;54.30
21807;DHT22;11065;50.786;7.840;2024-01-06T01:18:49;9.70;54.30
21807;DHT22;11065;50.786;7.840;2024-01-06T01:21:22;9.70;54.20
21807;DHT22;11065;50.786;7.840;2024-01-06T01:24:01;9.70;54.30
21807;DHT22;11065;50.786;7.840;2024-01-06T01:26:30;9.70;54.30
21807;DHT22;11065;50.786;7.840;2024-01-06T01:28:58;9.70;54.30
21807;DHT22;11065;50.786;7.840;2024-01-06T01:31:26;9.70;54.80
21807;DHT22;11065;50.786;7.840;2024-01-06T01:33:54;9.70;54.40
21807;DHT22;11065;50.786;7.840;2024-01-06T01:36:23;9.70;54.30
21807;DHT22;11065;50.786;7.840;2024-01-06T01:38:51;9.70;54.40
21807;DHT22;11065;50.786;7.840;2024-01-06T01:41:19;9.70;54.30
21807;DHT22;11065;50.786;7.840;2024-01-06T01:43:48;9.80;54.40
21807;DHT22;11065;50.786;7.840;2024-01-06T01:46:25;9.70;54.20
21807;DHT22;11065;50.786;7.840;2024-01-06T01:48:53;9.70;54.60
21807;DHT22;11065;50.786;7.840;2024-01-06T01:51:22;9.70;54.20
21807;DHT22;11065;50.786;7.840;2024-01-06T01:53:50;9.70;54.10
21807;DHT22;11065;50.786;7.840;2024-01-06T01:56:19;9.70;54.10
21807;DHT22;11065;50.786;7.840;2024-01-06T01:58:48;9.70;54.10
21807;DHT22;11065;50.786;7.840;2024-01-06T02:01:17;9.70;54.20
21807;DHT22;11065;50.786;7.840;2024-01-06T02:03:45;9.70;54.30
21807;DHT22;11065;50.786;7.840;2024-01-06T02:06:13;9.70;54.30
21807;DHT22;11065;50.786;7.840;2024-01-06T02:08:41;9.70;54.30
21807;DHT22;11065;50.786;7.840;2024-01-06T02:11:09;9.70;54.30
21807;DHT22;11065;50.786;7.840;2024-01-06T02:13:37;9.70;54.30
21807;DHT22;11065;50.786;7.840;2024-01-06T02:16:07;9.60;54.10
21807;DHT22;11065;50.786;7.840;2024-01-06T02:18:34;9.60;54.20
21807;DHT22;11065;50.786;7.840;2024-01-06T02:21:03;9.60;54.30
21807;DHT22;11065;50.786;7.840;2024-01-06T02:23:35;9.60;54.50
21807;DHT22;11065;50.786;7.840;2024-01-06T02:26:03;9.60;54.60
21807;DHT22;11065;50.786;7.840;2024-01-06T02:28:31;9.60;54.60
21807;DHT22;11065;50.786;7.840;2024-01-06T02:30:59;9.50;54.60
21807;DHT22;11065;50.786;7.840;2024-01-06T02:33:27;9.50;54.60
21807;DHT22;11065;50.786;7.840;2024-01-06T02:35:55;9.60;54.80
21807;DHT22;11065;50.786;7.840;2024-01-06T02:38:23;9.50;54.80
21807;DHT22;11065;50.786;7.840;2024-01-06T02:40:53;9.50;54.80
21807;DHT22;11065;50.786;7.840;2024-01-06T02:43:21;9.50;55.00
21807;DHT22;11065;50.786;7.840;2024-01-06T02:45:50;9.60;55.00
21807;DHT22;11065;50.786;7.840;2024-01-06T02:48:18;9.60;55.10
21807;DHT22;11065;50.786;7.840;2024-01-06T02:50:46;9.60;55.10
21807;DHT22;11065;50.786;7.840;2024-01-06T02:53:14;9.60;55.10
21807;DHT22;11065;50.786;7.840;2024-01-06T02:55:42;9.60;55.10
21807;DHT22;11065;50.786;7.840;2024-01-06T02:58:11;9.60;55.10
21807;DHT22;11065;50.786;7.840;2024-01-06T03:00:39;9.60;55.10
21807;DHT22;11065;50.786;7.840;2024-01-06T03:03:07;9.60;55.10
21807;DHT22;11065;50.786;7.840;2024-01-06T03:05:35;9.60;55.10
21807;DHT22;11065;50.786;7.840;2024-01-06T03:08:05;9.60;55.20
21807;DHT22;11065;50.786;7.840;2024-01-06T03:10:33;9.60;55.20
21807;DHT22;11065;50.786;7.840;2024-01-06T03:13:03;9.60;55.30
21807;DHT22;11065;50.786;7.840;2024-01-06T03:15:33;9.60;55.30
21807;DHT22;11065;50.786;7.840;2024-01-06T03:18:01;9.60;55.30
21807;DHT22;11065;50.786;7.840;2024-01-06T03:20:30;9.60;55.20
21807;DHT22;11065;50.786;7.840;2024-01-06T03:22:58;9.60;55.30
21807;DHT22;11065;50.786;7.840;2024-01-06T03:25:26;9.60;55.20
21807;DHT22;11065;50.786;7.840;2024-01-06T03:27:54;9.60;55.30
21807;DHT22;11065;50.786;7.840;2024-01-06T03:30:22;9.60;55.40
21807;DHT22;11065;50.786;7.840;2024-01-06T03:32:52;9.60;55.40
21807;DHT22;11065;50.786;7.840;2024-01-06T03:35:20;9.60;55.40
21807;DHT22;11065;50.786;7.840;2024-01-06T03:37:47;9.60;55.40
21807;DHT22;11065;50.786;7.840;2024-01-06T03:40:16;9.60;55.40
21807;DHT22;11065;50.786;7.840;2024-01-06T03:42:44;9.60;55.40
21807;DHT22;11065;50.786;7.840;2024-01-06T03:45:12;9.60;55.50
21807;DHT22;11065;50.786;7.840;2024-01-06T03:47:40;9.60;55.50
21807;DHT22;11065;50.786;7.840;2024-01-06T03:50:10;9.70;55.40
21807;DHT22;11065;50.786;7.840;2024-01-06T03:52:38;9.70;55.60
21807;DHT22;11065;50.786;7.840;2024-01-06T03:55:06;9.60;55.60
21807;DHT22;11065;50.786;7.840;2024-01-06T03:57:34;9.70;55.60
21807;DHT22;11065;50.786;7.840;2024-01-06T04:00:04;9.60;55.60
21807;DHT22;11065;50.786;7.840;2024-01-06T04:02:32;9.70;55.70
21807;DHT22;11065;50.786;7.840;2024-01-06T04:05:00;9.70;55.70
21807;DHT22;11065;50.786;7.840;2024-01-06T04:07:29;9.70;55.70
21807;DHT22;11065;50.786;7.840;2024-01-06T04:09:57;9.70;55.70
21807;DHT22;11065;50.786;7.840;2024-01-06T04:12:25;9.70;55.70
21807;DHT22;11065;50.786;7.840;2024-01-06T04:14:53;9.70;55.70
21807;DHT22;11065;50.786;7.840;2024-01-06T04:17:21;9.70;55.60
21807;DHT22;11065;50.786;7.840;2024-01-06T04:19:49;9.70;55.60
21807;DHT22;11065;50.786;7.840;2024-01-06T04:22:17;9.70;55.50
21807;DHT22;11065;50.786;7.840;2024-01-06T04:24:47;9.70;55.60
21807;DHT22;11065;50.786;7.840;2024-01-06T04:27:15;9.70;55.60
21807;DHT22;11065;50.786;7.840;2024-01-06T04:29:43;9.70;55.50
21807;DHT22;11065;50.786;7.840;2024-01-06T04:32:11;9.70;55.50
21807;DHT22;11065;50.786;7.840;2024-01-06T04:34:38;9.80;55.40
21807;DHT22;11065;50.786;7.840;2024-01-06T04:37:06;9.70;55.30
21807;DHT22;11065;50.786;7.840;2024-01-06T04:39:34;9.70;55.40
21807;DHT22;11065;50.786;7.840;2024-01-06T04:42:05;9.80;55.50
21807;DHT22;11065;50.786;7.840;2024-01-06T04:44:33;9.80;55.50
21807;DHT22;11065;50.786;7.840;2024-01-06T04:47:01;9.80;55.40
21807;DHT22;11065;50.786;7.840;2024-01-06T04:49:29;9.80;55.40
21807;DHT22;11065;50.786;7.840;2024-01-06T04:51:57;9.80;55.40
21807;DHT22;11065;50.786;7.840;2024-01-06T04:54:25;9.80;55.40
21807;DHT22;11065;50.786;7.840;2024-01-06T04:56:53;9.80;55.40
21807;DHT22;11065;50.786;7.840;2024-01-06T04:59:24;9.80;55.50
21807;DHT22;11065;50.786;7.840;2024-01-06T05:01:52;9.80;55.40
21807;DHT22;11065;50.786;7.840;2024-01-06T05:04:21;9.70;55.30
21807;DHT22;11065;50.786;7.840;2024-01-06T05:06:49;9.70;55.30
21807;DHT22;11065;50.786;7.840;2024-01-06T05:09:17;9.70;55.40
21807;DHT22;11065;50.786;7.840;2024-01-06T05:11:45;9.70;55.40
21807;DHT22;11065;50.786;7.840;2024-01-06T05:14:13;9.70;55.30
21807;DHT22;11065;50.786;7.840;2024-01-06T05:16:42;9.60;55.30
21807;DHT22;11065;50.786;7.840;2024-01-06T05:19:10;9.60;55.40
21807;DHT22;11065;50.786;7.840;2024-01-06T05:21:39;9.60;55.40
21807;DHT22;11065;50.786;7.840;2024-01-06T05:24:07;9.60;55.40
21807;DHT22;11065;50.786;7.840;2024-01-06T05:26:35;9.60;55.40
21807;DHT22;11065;50.786;7.840;2024-01-06T05:29:03;9.60;55.40
21807;DHT22;11065;50.786;7.840;2024-01-06T05:31:31;9.60;55.40
21807;DHT22;11065;50.786;7.840;2024-01-06T05:34:00;9.60;55.40
21807;DHT22;11065;50.786;7.840;2024-01-06T05:36:28;9.50;55.50
21807;DHT22;11065;50.786;7.840;2024-01-06T05:38:56;9.50;55.60
21807;DHT22;11065;50.786;7.840;2024-01-06T05:41:24;9.50;55.70
21807;DHT22;11065;50.786;7.840;2024-01-06T05:43:52;9.50;55.80
21807;DHT22;11065;50.786;7.840;2024-01-06T05:46:21;9.50;55.80
21807;DHT22;11065;50.786;7.840;2024-01-06T05:48:49;9.50;55.80
21807;DHT22;11065;50.786;7.840;2024-01-06T05:51:19;9.50;55.80
21807;DHT22;11065;50.786;7.840;2024-01-06T05:53:47;9.60;55.90
21807;DHT22;11065;50.786;7.840;2024-01-06T05:56:22;9.50;55.80
21807;DHT22;11065;50.786;7.840;2024-01-06T05:58:51;9.50;55.80
21807;DHT22;11065;50.786;7.840;2024-01-06T06:01:20;9.50;55.70
21807;DHT22;11065;50.786;7.840;2024-01-06T06:03:50;9.50;55.80
21807;DHT22;11065;50.786;7.840;2024-01-06T06:06:20;9.50;55.80
21807;DHT22;11065;50.786;7.840;2024-01-06T06:08:48;9.50;55.90
21807;DHT22;11065;50.786;7.840;2024-01-06T06:11:16;9.60;55.90
21807;DHT22;11065;50.786;7.840;2024-01-06T06:13:44;9.60;55.90
21807;DHT22;11065;50.786;7.840;2024-01-06T06:16:12;9.60;55.80
21807;DHT22;11065;50.786;7.840;2024-01-06T06:18:40;9.60;55.80
21807;DHT22;11065;50.786;7.840;2024-01-06T06:21:09;9.60;55.90
21807;DHT22;11065;50.786;7.840;2024-01-06T06:23:38;9.60;55.80
21807;DHT22;11065;50.786;7.840;2024-01-06T06:26:06;9.60;55.90
21807;DHT22;11065;50.786;7.840;2024-01-06T06:28:35;9.60;56.00
21807;DHT22;11065;50.786;7.840;2024-01-06T06:31:03;9.60;55.80
21807;DHT22;11065;50.786;7.840;2024-01-06T06:33:31;9.60;56.00
21807;DHT22;11065;50.786;7.840;2024-01-06T06:36:01;9.60;55.90
21807;DHT22;11065;50.786;7.840;2024-01-06T06:38:29;9.60;55.90
21807;DHT22;11065;50.786;7.840;2024-01-06T06:40:58;9.60;55.80
21807;DHT22;11065;50.786;7.840;2024-01-06T06:43:26;9.60;55.90
21807;DHT22;11065;50.786;7.840;2024-01-06T06:45:54;9.50;55.80
21807;DHT22;11065;50.786;7.840;2024-01-06T06:48:23;9.50;56.10
21807;DHT22;11065;50.786;7.840;2024-01-06T06:50:51;9.50;56.00
21807;DHT22;11065;50.786;7.840;2024-01-06T06:53:19;9.50;56.00
21807;DHT22;11065;50.786;7.840;2024-01-06T06:55:47;9.50;56.20
21807;DHT22;11065;50.786;7.840;2024-01-06T06:58:16;9.50;56.10
21807;DHT22;11065;50.786;7.840;2024-01-06T07:00:45;9.50;56.10
21807;DHT22;11065;50.786;7.840;2024-01-06T07:03:13;9.50;56.10
21807;DHT22;11065;50.786;7.840;2024-01-06T07:05:41;9.50;56.10
21807;DHT22;11065;50.786;7.840;2024-01-06T07:08:09;9.60;56.10
21807;DHT22;11065;50.786;7.840;2024-01-06T07:10:37;9.60;56.20
21807;DHT22;11065;50.786;7.840;2024-01-06T07:13:05;9.60;56.20
21807;DHT22;11065;50.786;7.840;2024-01-06T07:15:34;9.60;56.30
21807;DHT22;11065;50.786;7.840;2024-01-06T07:18:03;9.60;56.30
21807;DHT22;11065;50.786;7.840;2024-01-06T07:20:32;9.60;56.30
21807;DHT22;11065;50.786;7.840;2024-01-06T07:23:00;9.60;56.30
21807;DHT22;11065;50.786;7.840;2024-01-06T07:25:30;9.60;56.40
21807;DHT22;11065;50.786;7.840;2024-01-06T07:27:58;9.60;56.30
21807;DHT22;11065;50.786;7.840;2024-01-06T07:30:26;9.60;56.40
21807;DHT22;11065;50.786;7.840;2024-01-06T07:32:56;9.60;56.30
21807;DHT22;11065;50.786;7.840;2024-01-06T07:35:24;9.70;56.40
21807;DHT22;11065;50.786;7.840;2024-01-06T07:37:52;9.70;56.40
21807;DHT22;11065;50.786;7.840;2024-01-06T07:40:20;9.70;56.40
21807;DHT22;11065;50.786;7.840;2024-01-06T07:42:50;9.70;56.40
21807;DHT22;11065;50.786;7.840;2024-01-06T07:45:18;9.70;56.40
21807;DHT22;11065;50.786;7.840;2024-01-06T07:47:46;9.70;56.40
21807;DHT22;11065;50.786;7.840;2024-01-06T07:50:15;9.70;56.40
21807;DHT22;11065;50.786;7.840;2024-01-06T07:52:43;9.70;56.40
21807;DHT22;11065;50.786;7.840;2024-01-06T07:55:11;9.80;56.40
21807;DHT22;11065;50.786;7.840;2024-01-06T07:57:39;9.70;56.40
21807;DHT22;11065;50.786;7.840;2024-01-06T08:00:08;9.70;56.30
21807;DHT22;11065;50.786;7.840;2024-01-06T08:02:39;9.80;56.40
21807;DHT22;11065;50.786;7.840;2024-01-06T08:05:07;9.80;56.40
21807;DHT22;11065;50.786;7.840;2024-01-06T08:07:36;9.80;56.40
21807;DHT22;11065;50.786;7.840;2024-01-06T08:10:05;9.80;56.50
21807;DHT22;11065;50.786;7.840;2024-01-06T08:12:35;9.80;56.80
21807;DHT22;11065;50.786;7.840;2024-01-06T08:15:05;9.70;56.60
21807;DHT22;11065;50.786;7.840;2024-01-06T08:17:34;9.80;56.90
21807;DHT22;11065;50.786;7.840;2024-01-06T08:20:02;9.70;56.50
21807;DHT22;11065;50.786;7.840;2024-01-06T08:22:30;9.70;56.60
21807;DHT22;11065;50.786;7.840;2024-01-06T08:25:00;9.70;56.60
21807;DHT22;11065;50.786;7.840;2024-01-06T08:27:29;9.80;56.50
21807;DHT22;11065;50.786;7.840;2024-01-06T08:29:57;9.70;56.60
21807;DHT22;11065;50.786;7.840;2024-01-06T08:32:25;9.70;56.60
21807;DHT22;11065;50.786;7.840;2024-01-06T08:34:53;9.70;56.60
21807;DHT22;11065;50.786;7.840;2024-01-06T08:37:21;9.70;56.60
21807;DHT22;11065;50.786;7.840;2024-01-06T08:39:49;9.70;56.60
21807;DHT22;11065;50.786;7.840;2024-01-06T08:42:18;9.70;56.60
21807;DHT22;11065;50.786;7.840;2024-01-06T08:44:46;9.80;56.70
21807;DHT22;11065;50.786;7.840;2024-01-06T08:47:14;9.80;56.70
21807;DHT22;11065;50.786;7.840;2024-01-06T08:49:42;9.80;56.70
21807;DHT22;11065;50.786;7.840;2024-01-06T08:52:10;9.80;56.70
21807;DHT22;11065;50.786;7.840;2024-01-06T08:54:38;9.80;56.60
21807;DHT22;11065;50.786;7.840;2024-01-06T08:57:06;9.80;56.60
21807;DHT22;11065;50.786;7.840;2024-01-06T08:59:36;9.80;56.70
21807;DHT22;11065;50.786;7.840;2024-01-06T09:02:04;9.80;56.70
21807;DHT22;11065;50.786;7.840;2024-01-06T09:04:32;9.80;56.70
21807;DHT22;11065;50.786;7.840;2024-01-06T09:07:00;9.80;56.70
21807;DHT22;11065;50.786;7.840;2024-01-06T09:09:28;9.80;56.80
21807;DHT22;11065;50.786;7.840;2024-01-06T09:11:57;9.90;56.80
21807;DHT22;11065;50.786;7.840;2024-01-06T09:14:26;9.90;56.70
21807;DHT22;11065;50.786;7.840;2024-01-06T09:16:55;9.90;56.70
21807;DHT22;11065;50.786;7.840;2024-01-06T09:19:23;9.80;56.60
21807;DHT22;11065;50.786;7.840;2024-01-06T09:21:52;9.90;56.70
21807;DHT22;11065;50.786;7.840;2024-01-06T09:24:20;9.90;56.70
21807;DHT22;11065;50.786;7.840;2024-01-06T09:26:48;9.90;56.70
21807;DHT22;11065;50.786;7.840;2024-01-06T09:29:17;9.90;56.70
21807;DHT22;11065;50.786;7.840;2024-01-06T09:31:45;9.90;56.70
21807;DHT22;11065;50.786;7.840;2024-01-06T09:34:14;9.90;56.70
21807;DHT22;11065;50.786;7.840;2024-01-06T09:36:42;9.90;56.90
21807;DHT22;11065;50.786;7.840;2024-01-06T09:39:10;9.90;57.20
21807;DHT22;11065;50.786;7.840;2024-01-06T09:41:38;9.90;56.70
21807;DHT22;11065;50.786;7.840;2024-01-06T09:44:06;9.90;56.70
21807;DHT22;11065;50.786;7.840;2024-01-06T09:46:34;9.90;56.60
21807;DHT22;11065;50.786;7.840;2024-01-06T09:49:03;9.90;56.60
21807;DHT22;11065;50.786;7.840;2024-01-06T09:51:36;9.90;56.50
21807;DHT22;11065;50.786;7.840;2024-01-06T09:54:08;9.90;56.50
21807;DHT22;11065;50.786;7.840;2024-01-06T09:56:37;9.90;56.40
21807;DHT22;11065;50.786;7.840;2024-01-06T09:59:06;9.90;56.30
21807;DHT22;11065;50.786;7.840;2024-01-06T10:01:34;9.90;56.80
21807;DHT22;11065;50.786;7.840;2024-01-06T10:04:03;9.90;56.30
21807;DHT22;11065;50.786;7.840;2024-01-06T10:06:31;9.90;56.30
21807;DHT22;11065;50.786;7.840;2024-01-06T10:09:01;9.90;56.30
21807;DHT22;11065;50.786;7.840;2024-01-06T10:11:31;9.90;56.20
21807;DHT22;11065;50.786;7.840;2024-01-06T10:13:59;10.00;56.30
21807;DHT22;11065;50.786;7.840;2024-01-06T10:16:28;10.00;56.30
21807;DHT22;11065;50.786;7.840;2024-01-06T10:18:56;10.00;56.30
21807;DHT22;11065;50.786;7.840;2024-01-06T10:21:25;10.00;56.70
21807;DHT22;11065;50.786;7.840;2024-01-06T10:23:54;10.00;56.20
21807;DHT22;11065;50.786;7.840;2024-01-06T10:26:23;10.00;56.10
21807;DHT22;11065;50.786;7.840;2024-01-06T10:28:51;10.00;56.10
21807;DHT22;11065;50.786;7.840;2024-01-06T10:31:19;10.00;56.10
21807;DHT22;11065;50.786;7.840;2024-01-06T10:33:47;10.00;56.10
21807;DHT22;11065;50.786;7.840;2024-01-06T10:36:16;10.00;56.10
21807;DHT22;11065;50.786;7.840;2024-01-06T10:38:45;10.10;56.10
21807;DHT22;11065;50.786;7.840;2024-01-06T10:41:15;10.10;56.10
21807;DHT22;11065;50.786;7.840;2024-01-06T10:43:46;10.10;56.10
21807;DHT22;11065;50.786;7.840;2024-01-06T10:46:15;10.10;56.00
21807;DHT22;11065;50.786;7.840;2024-01-06T10:48:46;10.10;56.00
21807;DHT22;11065;50.786;7.840;2024-01-06T10:51:14;10.20;55.90
21807;DHT22;11065;50.786;7.840;2024-01-06T10:53:43;10.20;55.80
21807;DHT22;11065;50.786;7.840;2024-01-06T10:56:11;10.20;55.70
21807;DHT22;11065;50.786;7.840;2024-01-06T10:58:47;10.20;55.60
21807;DHT22;11065;50.786;7.840;2024-01-06T11:01:20;10.20;55.50
21807;DHT22;11065;50.786;7.840;2024-01-06T11:03:54;10.20;55.40
21807;DHT22;11065;50.786;7.840;2024-01-06T11:06:23;10.20;55.30
21807;DHT22;11065;50.786;7.840;2024-01-06T11:08:57;10.20;55.20
21807;DHT22;11065;50.786;7.840;2024-01-06T11:11:26;10.20;55.10
21807;DHT22;11065;50.786;7.840;2024-01-06T11:14:17;10.20;55.10
21807;DHT22;11065;50.786;7.840;2024-01-06T11:16:46;10.10;54.90
21807;DHT22;11065;50.786;7.840;2024-01-06T11:19:44;10.10;55.00
21807;DHT22;11065;50.786;7.840;2024-01-06T11:22:25;10.10;55.00
21807;DHT22;11065;50.786;7.840;2024-01-06T11:24:56;10.00;55.00
21807;DHT22;11065;50.786;7.840;2024-01-06T11:27:26;10.00;54.90
21807;DHT22;11065;50.786;7.840;2024-01-06T11:29:58;10.00;54.90
21807;DHT22;11065;50.786;7.840;2024-01-06T11:32:30;10.00;55.00
21807;DHT22;11065;50.786;7.840;2024-01-06T11:35:06;9.90;54.90
21807;DHT22;11065;50.786;7.840;2024-01-06T11:37:36;9.90;55.00
21807;DHT22;11065;50.786;7.840;2024-01-06T11:40:08;9.90;55.00
21807;DHT22;11065;50.786;7.840;2024-01-06T11:42:37;9.90;55.00
21807;DHT22;11065;50.786;7.840;2024-01-06T11:45:07;9.90;55.00
21807;DHT22;11065;50.786;7.840;2024-01-06T11:47:35;9.90;55.10
21807;DHT22;11065;50.786;7.840;2024-01-06T11:50:04;9.80;55.10
21807;DHT22;11065;50.786;7.840;2024-01-06T11:52:33;9.80;55.20
21807;DHT22;11065;50.786;7.840;2024-01-06T11:55:01;9.80;55.20
21807;DHT22;11065;50.786;7.840;2024-01-06T11:57:29;9.80;55.30
21807;DHT22;11065;50.786;7.840;2024-01-06T11:59:57;9.90;55.30
21807;DHT22;11065;50.786;7.840;2024-01-06T12:02:26;9.90;55.20
21807;DHT22;11065;50.786;7.840;2024-01-06T12:04:54;9.90;55.20
21807;DHT22;11065;50.786;7.840;2024-01-06T12:07:22;9.80;55.10
21807;DHT22;11065;50.786;7.840;2024-01-06T12:09:52;9.90;55.20
21807;DHT22;11065;50.786;7.840;2024-01-06T12:12:28;9.80;55.20
21807;DHT22;11065;50.786;7.840;2024-01-06T12:14:56;10.00;55.30
21807;DHT22;11065;50.786;7.840;2024-01-06T12:17:29;9.90;55.30
21807;DHT22;11065;50.786;7.840;2024-01-06T12:19:57;9.90;55.40
21807;DHT22;11065;50.786;7.840;2024-01-06T12:22:26;9.90;55.40
21807;DHT22;11065;50.786;7.840;2024-01-06T12:24:54;9.90;55.40
21807;DHT22;11065;50.786;7.840;2024-01-06T12:27:24;9.90;55.40
21807;DHT22;11065;50.786;7.840;2024-01-06T12:29:53;9.90;55.30
21807;DHT22;11065;50.786;7.840;2024-01-06T12:32:21;9.90;55.40
21807;DHT22;11065;50.786;7.840;2024-01-06T12:34:50;9.90;55.40
21807;DHT22;11065;50.786;7.840;2024-01-06T12:37:18;9.90;55.40
21807;DHT22;11065;50.786;7.840;2024-01-06T12:39:47;9.90;55.20
21807;DHT22;11065;50.786;7.840;2024-01-06T12:42:16;9.90;55.20
21807;DHT22;11065;50.786;7.840;2024-01-06T12:44:44;9.90;55.30
21807;DHT22;11065;50.786;7.840;2024-01-06T12:47:12;9.90;55.30
21807;DHT22;11065;50.786;7.840;2024-01-06T12:49:40;9.80;55.20
21807;DHT22;11065;50.786;7.840;2024-01-06T12:52:10;9.80;55.30
21807;DHT22;11065;50.786;7.840;2024-01-06T12:54:38;9.80;55.20
21807;DHT22;11065;50.786;7.840;2024-01-06T12:57:09;9.70;55.20
21807;DHT22;11065;50.786;7.840;2024-01-06T12:59:38;9.70;55.20
21807;DHT22;11065;50.786;7.840;2024-01-06T13:02:06;9.70;55.30
21807;DHT22;11065;50.786;7.840;2024-01-06T13:04:34;9.60;55.40
21807;DHT22;11065;50.786;7.840;2024-01-06T13:07:02;9.60;55.40
21807;DHT22;11065;50.786;7.840;2024-01-06T13:09:32;9.60;55.60
21807;DHT22;11065;50.786;7.840;2024-01-06T13:12:00;9.60;55.70
21807;DHT22;11065;50.786;7.840;2024-01-06T13:14:28;9.60;55.70
21807;DHT22;11065;50.786;7.840;2024-01-06T13:16:57;9.50;55.70
21807;DHT22;11065;50.786;7.840;2024-01-06T13:19:25;9.50;55.70
21807;DHT22;11065;50.786;7.840;2024-01-06T13:21:54;9.50;55.70
21807;DHT22;11065;50.786;7.840;2024-01-06T13:24:22;9.50;55.70
21807;DHT22;11065;50.786;7.840;2024-01-06T13:26:51;9.50;55.70
21807;DHT22;11065;50.786;7.840;2024-01-06T13:29:19;9.50;55.70
21807;DHT22;11065;50.786;7.840;2024-01-06T13:31:47;9.50;55.80
21807;DHT22;11065;50.786;7.840;2024-01-06T13:34:16;9.50;55.70
21807;DHT22;11065;50.786;7.840;2024-01-06T13:36:44;9.50;55.80
21807;DHT22;11065;50.786;7.840;2024-01-06T13:39:13;9.50;55.80
21807;DHT22;11065;50.786;7.840;2024-01-06T13:41:48;9.50;55.80
21807;DHT22;11065;50.786;7.840;2024-01-06T13:44:18;9.50;55.80
21807;DHT22;11065;50.786;7.840;2024-01-06T13:46:46;9.50;55.80
21807;DHT22;11065;50.786;7.840;2024-01-06T13:49:15;9.50;55.70
21807;DHT22;11065;50.786;7.840;2024-01-06T13:51:43;9.50;55.80
21807;DHT22;11065;50.786;7.840;2024-01-06T13:54:12;9.50;55.80
21807;DHT22;11065;50.786;7.840;2024-01-06T13:56:43;9.50;55.80
21807;DHT22;11065;50.786;7.840;2024-01-06T13:59:11;9.50;55.80
21807;DHT22;11065;50.786;7.840;2024-01-06T14:01:40;9.50;55.80
21807;DHT22;11065;50.786;7.840;2024-01-06T14:04:09;9.50;55.80
21807;DHT22;11065;50.786;7.840;2024-01-06T14:06:37;9.50;55.80
21807;DHT22;11065;50.786;7.840;2024-01-06T14:09:06;9.50;55.70
21807;DHT22;11065;50.786;7.840;2024-01-06T14:11:34;9.50;55.80
21807;DHT22;11065;50.786;7.840;2024-01-06T14:14:03;9.50;55.80
21807;DHT22;11065;50.786;7.840;2024-01-06T14:16:31;9.50;55.80
21807;DHT22;11065;50.786;7.840;2024-01-06T14:19:01;9.50;55.90
21807;DHT22;11065;50.786;7.840;2024-01-06T14:21:29;9.50;55.90
21807;DHT22;11065;50.786;7.840;2024-01-06T14:23:57;9.50;55.90
21807;DHT22;11065;50.786;7.840;2024-01-06T14:26:26;9.50;55.90
21807;DHT22;11065;50.786;7.840;2024-01-06T14:28:54;9.50;55.90
21807;DHT22;11065;50.786;7.840;2024-01-06T14:31:22;9.50;55.80
21807;DHT22;11065;50.786;7.840;2024-01-06T14:33:50;9.50;55.70
21807;DHT22;11065;50.786;7.840;2024-01-06T14:36:19;9.50;55.70
21807;DHT22;11065;50.786;7.840;2024-01-06T14:38:48;9.40;55.70
21807;DHT22;11065;50.786;7.840;2024-01-06T14:41:16;9.50;55.90
21807;DHT22;11065;50.786;7.840;2024-01-06T14:43:44;9.50;55.90
21807;DHT22;11065;50.786;7.840;2024-01-06T14:46:12;9.40;55.80
21807;DHT22;11065;50.786;7.840;2024-01-06T14:48:40;9.40;55.80
21807;DHT22;11065;50.786;7.840;2024-01-06T14:51:08;9.40;55.90
21807;DHT22;11065;50.786;7.840;2024-01-06T14:53:37;9.40;55.90
21807;DHT22;11065;50.786;7.840;2024-01-06T14:56:05;9.40;56.00
21807;DHT22;11065;50.786;7.840;2024-01-06T14:58:33;9.40;56.00
21807;DHT22;11065;50.786;7.840;2024-01-06T15:01:01;9.30;56.00
21807;DHT22;11065;50.786;7.840;2024-01-06T15:03:29;9.30;56.00
21807;DHT22;11065;50.786;7.840;2024-01-06T15:05:58;9.30;56.10
21807;DHT22;11065;50.786;7.840;2024-01-06T15:08:26;9.30;56.10
21807;DHT22;11065;50.786;7.840;2024-01-06T15:10:56;9.30;56.00
21807;DHT22;11065;50.786;7.840;2024-01-06T15:13:24;9.30;56.00
21807;DHT22;11065;50.786;7.840;2024-01-06T15:15:52;9.30;56.00
21807;DHT22;11065;50.786;7.840;2024-01-06T15:18:22;9.20;56.00
21807;DHT22;11065;50.786;7.840;2024-01-06T15:20:50;9.20;56.10
21807;DHT22;11065;50.786;7.840;2024-01-06T15:23:18;9.20;56.20
21807;DHT22;11065;50.786;7.840;2024-01-06T15:25:46;9.20;56.10
21807;DHT22;11065;50.786;7.840;2024-01-06T15:28:15;9.20;56.10
21807;DHT22;11065;50.786;7.840;2024-01-06T15:30:44;9.20;56.20
21807;DHT22;11065;50.786;7.840;2024-01-06T15:33:12;9.10;56.10
21807;DHT22;11065;50.786;7.840;2024-01-06T15:35:41;9.20;56.10
21807;DHT22;11065;50.786;7.840;2024-01-06T15:38:09;9.10;56.50
21807;DHT22;11065;50.786;7.840;2024-01-06T15:40:37;9.10;56.10
21807;DHT22;11065;50.786;7.840;2024-01-06T15:43:05;9.10;56.10
21807;DHT22;11065;50.786;7.840;2024-01-06T15:45:34;9.10;56.20
21807;DHT22;11065;50.786;7.840;2024-01-06T15:48:03;9.00;56.20
21807;DHT22;11065;50.786;7.840;2024-01-06T15:50:31;9.00;56.30
21807;DHT22;11065;50.786;7.840;2024-01-06T15:52:59;9.00;56.20
21807;DHT22;11065;50.786;7.840;2024-01-06T15:55:27;9.00;56.30